sensor_id;sensor_type;location;lat;lon;timestamp;temperature;humidity
19906;DHT22;10115;50.906;4.438;2023-04-24T00:01:17;9.30;99.90
19906;DHT22;10115;50.906;4.438;2023-04-24T00:03:42;9.30;99.90
19906;DHT22;10115;50.906;4.438;2023-04-24T00:06:08;9.30;99.90
19906;DHT22;10115;50.906;4.438;2023-04-24T00:08:35;9.20;99.90
19906;DHT22;10115;50.906;4.438;2023-04-24T00:11:01;9.20;99.90
19906;DHT22;10115;50.906;4.438;2023-04-24T00:13:27;9.20;99.90
19906;DHT22;10115;50.906;4.438;2023-04-24T00:15:54;9.20;99.90
19906;DHT22;10115;50.906;4.438;2023-04-24T00:18:20;9.20;99.90
19906;DHT22;10115;50.906;4.438;2023-04-24T00:20:46;9.20;99.90
19906;DHT22;10115;50.906;4.438;2023-04-24T00:23:12;9.20;99.90
19906;DHT22;10115;50.906;4.438;2023-04-24T00:25:38;9.20;99.90
19906;DHT22;10115;50.906;4.438;2023-04-24T00:28:03;9.10;99.90
19906;DHT22;10115;50.906;4.438;2023-04-24T00:30:29;9.10;99.90
19906;DHT22;10115;50.906;4.438;2023-04-24T00:32:55;9.10;99.90
19906;DHT22;10115;50.906;4.438;2023-04-24T00:35:21;9.10;99.90
19906;DHT22;10115;50.906;4.438;2023-04-24T00:37:46;9.10;99.90
19906;DHT22;10115;50.906;4.438;2023-04-24T00:40:12;9.10;99.90
19906;DHT22;10115;50.906;4.438;2023-04-24T00:42:39;9.00;99.90
19906;DHT22;10115;50.906;4.438;2023-04-24T00:45:06;9.00;99.90
19906;DHT22;10115;50.906;4.438;2023-04-24T00:47:33;9.00;99.90
19906;DHT22;10115;50.906;4.438;2023-04-24T00:50:04;9.00;99.90
19906;DHT22;10115;50.906;4.438;2023-04-24T00:52:30;9.00;99.90
19906;DHT22;10115;50.906;4.438;2023-04-24T00:54:58;9.00;99.90
19906;DHT22;10115;50.906;4.438;2023-04-24T00:57:24;9.00;99.90
19906;DHT22;10115;50.906;4.438;2023-04-24T00:59:51;9.00;99.90
19906;DHT22;10115;50.906;4.438;2023-04-24T01:02:17;9.00;99.90
19906;DHT22;10115;50.906;4.438;2023-04-24T01:04:44;9.00;99.90
19906;DHT22;10115;50.906;4.438;2023-04-24T01:07:10;9.00;99.90
19906;DHT22;10115;50.906;4.438;2023-04-24T01:09:44;8.90;99.90
19906;DHT22;10115;50.906;4.438;2023-04-24T01:12:12;8.90;99.90
19906;DHT22;10115;50.906;4.438;2023-04-24T01:14:38;8.90;99.90
19906;DHT22;10115;50.906;4.438;2023-04-24T01:17:04;8.90;99.90
19906;DHT22;10115;50.906;4.438;2023-04-24T01:19:30;8.90;99.90
19906;DHT22;10115;50.906;4.438;2023-04-24T01:21:58;8.80;99.90
19906;DHT22;10115;50.906;4.438;2023-04-24T01:24:24;8.90;99.90
19906;DHT22;10115;50.906;4.438;2023-04-24T01:26:50;8.80;99.90
19906;DHT22;10115;50.906;4.438;2023-04-24T01:29:16;8.80;99.90
19906;DHT22;10115;50.906;4.438;2023-04-24T01:31:41;8.80;99.90
19906;DHT22;10115;50.906;4.438;2023-04-24T01:34:07;8.80;99.90
19906;DHT22;10115;50.906;4.438;2023-04-24T01:36:34;8.80;99.90
19906;DHT22;10115;50.906;4.438;2023-04-24T01:39:00;8.80;99.90
19906;DHT22;10115;50.906;4.438;2023-04-24T01:41:26;8.80;99.90
19906;DHT22;10115;50.906;4.438;2023-04-24T01:43:53;8.70;99.90
19906;DHT22;10115;50.906;4.438;2023-04-24T01:46:20;8.70;99.90
19906;DHT22;10115;50.906;4.438;2023-04-24T01:48:46;8.80;99.90
19906;DHT22;10115;50.906;4.438;2023-04-24T01:51:11;8.80;99.90
19906;DHT22;10115;50.906;4.438;2023-04-24T01:53:37;8.70;99.90
19906;DHT22;10115;50.906;4.438;2023-04-24T01:56:03;8.70;99.90
19906;DHT22;10115;50.906;4.438;2023-04-24T01:58:29;8.70;99.90
19906;DHT22;10115;50.906;4.438;2023-04-24T02:00:56;8.70;99.90
19906;DHT22;10115;50.906;4.438;2023-04-24T02:03:25;8.70;99.90
19906;DHT22;10115;50.906;4.438;2023-04-24T02:05:51;8.70;99.90
19906;DHT22;10115;50.906;4.438;2023-04-24T02:08:17;8.60;99.90
19906;DHT22;10115;50.906;4.438;2023-04-24T02:10:43;8.70;99.90
19906;DHT22;10115;50.906;4.438;2023-04-24T02:13:08;8.60;99.90
19906;DHT22;10115;50.906;4.438;2023-04-24T02:15:34;8.70;99.90
19906;DHT22;10115;50.906;4.438;2023-04-24T02:18:01;8.60;99.90
19906;DHT22;10115;50.906;4.438;2023-04-24T02:20:27;8.60;99.90
19906;DHT22;10115;50.906;4.438;2023-04-24T02:22:52;8.60;99.90
19906;DHT22;10115;50.906;4.438;2023-04-24T02:25:18;8.60;99.90
19906;DHT22;10115;50.906;4.438;2023-04-24T02:27:44;8.60;99.90
19906;DHT22;10115;50.906;4.438;2023-04-24T02:30:10;8.60;99.90
19906;DHT22;10115;50.906;4.438;2023-04-24T02:32:35;8.60;99.90
19906;DHT22;10115;50.906;4.438;2023-04-24T02:35:01;8.60;99.90
19906;DHT22;10115;50.906;4.438;2023-04-24T02:37:27;8.60;99.90
19906;DHT22;10115;50.906;4.438;2023-04-24T02:39:53;8.60;99.90
19906;DHT22;10115;50.906;4.438;2023-04-24T02:42:18;8.60;99.90
19906;DHT22;10115;50.906;4.438;2023-04-24T02:44:44;8.60;99.90
19906;DHT22;10115;50.906;4.438;2023-04-24T02:47:09;8.50;99.90
19906;DHT22;10115;50.906;4.438;2023-04-24T02:49:35;8.50;99.90
19906;DHT22;10115;50.906;4.438;2023-04-24T02:52:01;8.50;99.90
19906;DHT22;10115;50.906;4.438;2023-04-24T02:54:26;8.50;99.90
19906;DHT22;10115;50.906;4.438;2023-04-24T02:56:52;8.50;99.90
19906;DHT22;10115;50.906;4.438;2023-04-24T02:59:18;8.50;99.90
19906;DHT22;10115;50.906;4.438;2023-04-24T03:01:43;8.40;99.90
19906;DHT22;10115;50.906;4.438;2023-04-24T03:04:09;8.40;99.90
19906;DHT22;10115;50.906;4.438;2023-04-24T03:06:35;8.40;99.90
19906;DHT22;10115;50.906;4.438;2023-04-24T03:09:01;8.40;99.90
19906;DHT22;10115;50.906;4.438;2023-04-24T03:11:28;8.40;99.90
19906;DHT22;10115;50.906;4.438;2023-04-24T03:13:54;8.40;99.90
19906;DHT22;10115;50.906;4.438;2023-04-24T03:16:20;8.40;99.90
19906;DHT22;10115;50.906;4.438;2023-04-24T03:18:45;8.40;99.90
19906;DHT22;10115;50.906;4.438;2023-04-24T03:21:11;8.30;99.90
19906;DHT22;10115;50.906;4.438;2023-04-24T03:23:38;8.30;99.90
19906;DHT22;10115;50.906;4.438;2023-04-24T03:26:03;8.40;99.90
19906;DHT22;10115;50.906;4.438;2023-04-24T03:28:29;8.30;99.90
19906;DHT22;10115;50.906;4.438;2023-04-24T03:30:55;8.30;99.90
19906;DHT22;10115;50.906;4.438;2023-04-24T03:33:20;8.30;99.90
19906;DHT22;10115;50.906;4.438;2023-04-24T03:35:46;8.30;99.90
19906;DHT22;10115;50.906;4.438;2023-04-24T03:38:11;8.40;99.90
19906;DHT22;10115;50.906;4.438;2023-04-24T03:40:37;8.30;99.90
19906;DHT22;10115;50.906;4.438;2023-04-24T03:43:03;8.30;99.90
19906;DHT22;10115;50.906;4.438;2023-04-24T03:45:28;8.30;99.90
19906;DHT22;10115;50.906;4.438;2023-04-24T03:47:54;8.30;99.90
19906;DHT22;10115;50.906;4.438;2023-04-24T03:50:20;8.30;99.90
19906;DHT22;10115;50.906;4.438;2023-04-24T03:52:45;8.40;99.90
19906;DHT22;10115;50.906;4.438;2023-04-24T03:55:11;8.40;99.90
19906;DHT22;10115;50.906;4.438;2023-04-24T03:57:40;8.40;99.90
19906;DHT22;10115;50.906;4.438;2023-04-24T04:00:06;8.30;99.90
19906;DHT22;10115;50.906;4.438;2023-04-24T04:02:31;8.40;99.90
19906;DHT22;10115;50.906;4.438;2023-04-24T04:04:57;8.30;99.90
19906;DHT22;10115;50.906;4.438;2023-04-24T04:07:24;8.40;99.90
19906;DHT22;10115;50.906;4.438;2023-04-24T04:09:50;8.40;99.90
19906;DHT22;10115;50.906;4.438;2023-04-24T04:12:15;8.40;99.90
19906;DHT22;10115;50.906;4.438;2023-04-24T04:14:41;8.40;99.90
19906;DHT22;10115;50.906;4.438;2023-04-24T04:17:07;8.40;99.90
19906;DHT22;10115;50.906;4.438;2023-04-24T04:19:32;8.40;99.90
19906;DHT22;10115;50.906;4.438;2023-04-24T04:21:58;8.40;99.90
19906;DHT22;10115;50.906;4.438;2023-04-24T04:24:24;8.40;99.90
19906;DHT22;10115;50.906;4.438;2023-04-24T04:26:52;8.40;99.90
19906;DHT22;10115;50.906;4.438;2023-04-24T04:29:18;8.40;99.90
19906;DHT22;10115;50.906;4.438;2023-04-24T04:31:44;8.40;99.90
19906;DHT22;10115;50.906;4.438;2023-04-24T04:34:10;8.40;99.90
19906;DHT22;10115;50.906;4.438;2023-04-24T04:36:36;8.30;99.90
19906;DHT22;10115;50.906;4.438;2023-04-24T04:39:05;8.30;99.90
19906;DHT22;10115;50.906;4.438;2023-04-24T04:41:31;8.30;99.90
19906;DHT22;10115;50.906;4.438;2023-04-24T04:43:57;8.30;99.90
19906;DHT22;10115;50.906;4.438;2023-04-24T04:46:26;8.30;99.90
19906;DHT22;10115;50.906;4.438;2023-04-24T04:48:53;8.20;99.90
19906;DHT22;10115;50.906;4.438;2023-04-24T04:51:18;8.20;99.90
19906;DHT22;10115;50.906;4.438;2023-04-24T04:53:44;8.20;99.90
19906;DHT22;10115;50.906;4.438;2023-04-24T04:56:10;8.20;99.90
19906;DHT22;10115;50.906;4.438;2023-04-24T04:58:36;8.20;99.90
19906;DHT22;10115;50.906;4.438;2023-04-24T05:01:01;8.20;99.90
19906;DHT22;10115;50.906;4.438;2023-04-24T05:03:27;8.20;99.90
19906;DHT22;10115;50.906;4.438;2023-04-24T05:05:53;8.20;99.90
19906;DHT22;10115;50.906;4.438;2023-04-24T05:08:19;8.20;99.90
19906;DHT22;10115;50.906;4.438;2023-04-24T05:10:45;8.10;99.90
19906;DHT22;10115;50.906;4.438;2023-04-24T05:13:10;8.10;99.90
19906;DHT22;10115;50.906;4.438;2023-04-24T05:15:36;8.10;99.90
19906;DHT22;10115;50.906;4.438;2023-04-24T05:18:02;8.10;99.90
19906;DHT22;10115;50.906;4.438;2023-04-24T05:20:28;8.10;99.90
19906;DHT22;10115;50.906;4.438;2023-04-24T05:22:53;8.10;99.90
19906;DHT22;10115;50.906;4.438;2023-04-24T05:25:19;8.10;99.90
19906;DHT22;10115;50.906;4.438;2023-04-24T05:27:45;8.10;99.90
19906;DHT22;10115;50.906;4.438;2023-04-24T05:30:12;8.00;99.90
19906;DHT22;10115;50.906;4.438;2023-04-24T05:32:38;8.10;99.90
19906;DHT22;10115;50.906;4.438;2023-04-24T05:35:04;8.10;99.90
19906;DHT22;10115;50.906;4.438;2023-04-24T05:37:29;8.00;99.90
19906;DHT22;10115;50.906;4.438;2023-04-24T05:39:55;8.00;99.90
19906;DHT22;10115;50.906;4.438;2023-04-24T05:42:21;8.00;99.90
19906;DHT22;10115;50.906;4.438;2023-04-24T05:44:46;8.00;99.90
19906;DHT22;10115;50.906;4.438;2023-04-24T05:47:12;8.00;99.90
19906;DHT22;10115;50.906;4.438;2023-04-24T05:49:37;8.00;99.90
19906;DHT22;10115;50.906;4.438;2023-04-24T05:52:03;8.00;99.90
19906;DHT22;10115;50.906;4.438;2023-04-24T05:54:30;8.00;99.90
19906;DHT22;10115;50.906;4.438;2023-04-24T05:56:56;8.00;99.90
19906;DHT22;10115;50.906;4.438;2023-04-24T05:59:22;8.00;99.90
19906;DHT22;10115;50.906;4.438;2023-04-24T06:01:47;8.00;99.90
19906;DHT22;10115;50.906;4.438;2023-04-24T06:04:13;8.00;99.90
19906;DHT22;10115;50.906;4.438;2023-04-24T06:06:39;8.00;99.90
19906;DHT22;10115;50.906;4.438;2023-04-24T06:09:05;8.00;99.90
19906;DHT22;10115;50.906;4.438;2023-04-24T06:11:31;8.00;99.90
19906;DHT22;10115;50.906;4.438;2023-04-24T06:13:57;8.00;99.90
19906;DHT22;10115;50.906;4.438;2023-04-24T06:16:22;8.00;99.90
19906;DHT22;10115;50.906;4.438;2023-04-24T06:18:48;8.00;99.90
19906;DHT22;10115;50.906;4.438;2023-04-24T06:21:17;8.00;99.90
19906;DHT22;10115;50.906;4.438;2023-04-24T06:23:43;8.10;99.90
19906;DHT22;10115;50.906;4.438;2023-04-24T06:26:09;8.10;99.90
19906;DHT22;10115;50.906;4.438;2023-04-24T06:28:34;8.10;99.90
19906;DHT22;10115;50.906;4.438;2023-04-24T06:31:00;8.10;99.90
19906;DHT22;10115;50.906;4.438;2023-04-24T06:33:26;8.20;99.90
19906;DHT22;10115;50.906;4.438;2023-04-24T06:35:51;8.10;99.90
19906;DHT22;10115;50.906;4.438;2023-04-24T06:38:17;8.10;99.90
19906;DHT22;10115;50.906;4.438;2023-04-24T06:40:43;8.10;99.90
19906;DHT22;10115;50.906;4.438;2023-04-24T06:43:09;8.20;99.90
19906;DHT22;10115;50.906;4.438;2023-04-24T06:45:35;8.10;99.90
19906;DHT22;10115;50.906;4.438;2023-04-24T06:48:01;8.20;99.90
19906;DHT22;10115;50.906;4.438;2023-04-24T06:50:27;8.20;99.90
19906;DHT22;10115;50.906;4.438;2023-04-24T06:52:52;8.20;99.90
19906;DHT22;10115;50.906;4.438;2023-04-24T06:55:18;8.20;99.90
19906;DHT22;10115;50.906;4.438;2023-04-24T06:57:44;8.20;99.90
19906;DHT22;10115;50.906;4.438;2023-04-24T07:00:10;8.30;99.90
19906;DHT22;10115;50.906;4.438;2023-04-24T07:02:36;8.30;99.90
19906;DHT22;10115;50.906;4.438;2023-04-24T07:05:03;8.30;99.90
19906;DHT22;10115;50.906;4.438;2023-04-24T07:07:29;8.30;99.90
19906;DHT22;10115;50.906;4.438;2023-04-24T07:09:55;8.40;99.90
19906;DHT22;10115;50.906;4.438;2023-04-24T07:12:21;8.40;99.90
19906;DHT22;10115;50.906;4.438;2023-04-24T07:14:47;8.40;99.90
19906;DHT22;10115;50.906;4.438;2023-04-24T07:17:15;8.40;99.90
19906;DHT22;10115;50.906;4.438;2023-04-24T07:19:41;8.40;99.90
19906;DHT22;10115;50.906;4.438;2023-04-24T07:22:07;8.40;99.90
19906;DHT22;10115;50.906;4.438;2023-04-24T07:24:32;8.40;99.90
19906;DHT22;10115;50.906;4.438;2023-04-24T07:26:58;8.40;99.90
19906;DHT22;10115;50.906;4.438;2023-04-24T07:29:24;8.40;99.90
19906;DHT22;10115;50.906;4.438;2023-04-24T07:31:50;8.40;99.90
19906;DHT22;10115;50.906;4.438;2023-04-24T07:34:17;8.40;99.90
19906;DHT22;10115;50.906;4.438;2023-04-24T07:36:42;8.40;99.90
19906;DHT22;10115;50.906;4.438;2023-04-24T07:39:08;8.40;99.90
19906;DHT22;10115;50.906;4.438;2023-04-24T07:41:34;8.40;99.90
19906;DHT22;10115;50.906;4.438;2023-04-24T07:44:00;8.50;99.90
19906;DHT22;10115;50.906;4.438;2023-04-24T07:46:27;8.50;99.90
19906;DHT22;10115;50.906;4.438;2023-04-24T07:48:55;8.60;99.90
19906;DHT22;10115;50.906;4.438;2023-04-24T07:51:21;8.70;99.90
19906;DHT22;10115;50.906;4.438;2023-04-24T07:53:47;8.80;99.90
19906;DHT22;10115;50.906;4.438;2023-04-24T07:56:12;8.90;99.90
19906;DHT22;10115;50.906;4.438;2023-04-24T07:58:38;9.00;99.90
19906;DHT22;10115;50.906;4.438;2023-04-24T08:01:04;9.20;99.90
19906;DHT22;10115;50.906;4.438;2023-04-24T08:03:30;9.20;99.90
19906;DHT22;10115;50.906;4.438;2023-04-24T08:05:56;9.20;99.90
19906;DHT22;10115;50.906;4.438;2023-04-24T08:08:22;9.30;99.90
19906;DHT22;10115;50.906;4.438;2023-04-24T08:10:49;9.20;99.90
19906;DHT22;10115;50.906;4.438;2023-04-24T08:13:15;9.00;99.90
19906;DHT22;10115;50.906;4.438;2023-04-24T08:15:40;8.90;99.90
19906;DHT22;10115;50.906;4.438;2023-04-24T08:18:07;8.90;99.90
19906;DHT22;10115;50.906;4.438;2023-04-24T08:20:32;9.00;99.90
19906;DHT22;10115;50.906;4.438;2023-04-24T08:22:58;9.00;99.90
19906;DHT22;10115;50.906;4.438;2023-04-24T08:25:24;9.00;99.90
19906;DHT22;10115;50.906;4.438;2023-04-24T08:27:50;9.10;99.90
19906;DHT22;10115;50.906;4.438;2023-04-24T08:30:16;9.10;99.90
19906;DHT22;10115;50.906;4.438;2023-04-24T08:32:42;9.30;99.90
19906;DHT22;10115;50.906;4.438;2023-04-24T08:35:08;9.40;99.90
19906;DHT22;10115;50.906;4.438;2023-04-24T08:37:35;9.50;99.90
19906;DHT22;10115;50.906;4.438;2023-04-24T08:40:02;9.90;99.90
19906;DHT22;10115;50.906;4.438;2023-04-24T08:42:32;10.10;99.90
19906;DHT22;10115;50.906;4.438;2023-04-24T08:44:58;10.00;99.90
19906;DHT22;10115;50.906;4.438;2023-04-24T08:47:25;9.90;99.90
19906;DHT22;10115;50.906;4.438;2023-04-24T08:49:52;9.70;99.90
19906;DHT22;10115;50.906;4.438;2023-04-24T08:52:19;9.60;99.90
19906;DHT22;10115;50.906;4.438;2023-04-24T08:54:46;9.60;99.90
19906;DHT22;10115;50.906;4.438;2023-04-24T08:57:13;9.50;99.90
19906;DHT22;10115;50.906;4.438;2023-04-24T08:59:39;9.50;99.90
19906;DHT22;10115;50.906;4.438;2023-04-24T09:02:06;9.50;99.90
19906;DHT22;10115;50.906;4.438;2023-04-24T09:04:35;9.70;99.90
19906;DHT22;10115;50.906;4.438;2023-04-24T09:07:02;9.80;99.90
19906;DHT22;10115;50.906;4.438;2023-04-24T09:09:30;9.80;99.90
19906;DHT22;10115;50.906;4.438;2023-04-24T09:11:58;10.00;99.90
19906;DHT22;10115;50.906;4.438;2023-04-24T09:14:24;10.20;99.90
19906;DHT22;10115;50.906;4.438;2023-04-24T09:16:50;10.40;99.90
19906;DHT22;10115;50.906;4.438;2023-04-24T09:19:16;10.70;99.90
19906;DHT22;10115;50.906;4.438;2023-04-24T09:21:45;10.90;99.90
19906;DHT22;10115;50.906;4.438;2023-04-24T09:24:20;10.80;99.90
19906;DHT22;10115;50.906;4.438;2023-04-24T09:26:48;10.60;99.90
19906;DHT22;10115;50.906;4.438;2023-04-24T09:29:18;10.40;99.90
19906;DHT22;10115;50.906;4.438;2023-04-24T09:31:45;10.40;99.90
19906;DHT22;10115;50.906;4.438;2023-04-24T09:34:11;10.30;99.90
19906;DHT22;10115;50.906;4.438;2023-04-24T09:36:38;10.40;99.90
19906;DHT22;10115;50.906;4.438;2023-04-24T09:39:09;10.40;99.90
19906;DHT22;10115;50.906;4.438;2023-04-24T09:41:51;10.60;99.90
19906;DHT22;10115;50.906;4.438;2023-04-24T09:44:18;10.80;99.90
19906;DHT22;10115;50.906;4.438;2023-04-24T09:46:58;10.80;99.90
19906;DHT22;10115;50.906;4.438;2023-04-24T09:51:52;10.90;99.90
19906;DHT22;10115;50.906;4.438;2023-04-24T09:54:20;10.70;99.90
19906;DHT22;10115;50.906;4.438;2023-04-24T09:56:50;10.70;99.90
19906;DHT22;10115;50.906;4.438;2023-04-24T09:59:18;10.70;99.90
19906;DHT22;10115;50.906;4.438;2023-04-24T10:01:44;10.70;99.90
19906;DHT22;10115;50.906;4.438;2023-04-24T10:04:17;10.80;99.90
19906;DHT22;10115;50.906;4.438;2023-04-24T10:06:43;10.80;99.90
19906;DHT22;10115;50.906;4.438;2023-04-24T10:09:09;10.80;99.90
19906;DHT22;10115;50.906;4.438;2023-04-24T10:11:37;10.70;99.90
19906;DHT22;10115;50.906;4.438;2023-04-24T10:14:06;10.90;99.90
19906;DHT22;10115;50.906;4.438;2023-04-24T10:16:32;10.90;99.90
19906;DHT22;10115;50.906;4.438;2023-04-24T10:18:59;10.90;99.90
19906;DHT22;10115;50.906;4.438;2023-04-24T10:21:26;11.10;99.90
19906;DHT22;10115;50.906;4.438;2023-04-24T10:23:53;11.10;99.90
19906;DHT22;10115;50.906;4.438;2023-04-24T10:26:19;11.30;99.90
19906;DHT22;10115;50.906;4.438;2023-04-24T10:28:46;11.20;99.90
19906;DHT22;10115;50.906;4.438;2023-04-24T10:31:13;11.00;99.90
19906;DHT22;10115;50.906;4.438;2023-04-24T10:33:43;11.00;99.90
19906;DHT22;10115;50.906;4.438;2023-04-24T10:36:10;11.10;99.90
19906;DHT22;10115;50.906;4.438;2023-04-24T10:38:38;11.00;99.90
19906;DHT22;10115;50.906;4.438;2023-04-24T10:41:10;10.80;99.90
19906;DHT22;10115;50.906;4.438;2023-04-24T10:43:42;10.80;99.90
19906;DHT22;10115;50.906;4.438;2023-04-24T10:46:08;10.50;99.90
19906;DHT22;10115;50.906;4.438;2023-04-24T10:48:36;10.50;99.90
19906;DHT22;10115;50.906;4.438;2023-04-24T10:51:11;10.60;99.90
19906;DHT22;10115;50.906;4.438;2023-04-24T10:53:37;10.70;99.90
19906;DHT22;10115;50.906;4.438;2023-04-24T10:58:45;10.80;99.90
19906;DHT22;10115;50.906;4.438;2023-04-24T11:01:25;10.80;99.90
19906;DHT22;10115;50.906;4.438;2023-04-24T11:03:56;10.90;99.90
19906;DHT22;10115;50.906;4.438;2023-04-24T11:06:36;10.80;99.90
19906;DHT22;10115;50.906;4.438;2023-04-24T11:09:07;10.90;99.90
19906;DHT22;10115;50.906;4.438;2023-04-24T11:11:35;10.80;99.90
19906;DHT22;10115;50.906;4.438;2023-04-24T11:14:02;10.80;99.90
19906;DHT22;10115;50.906;4.438;2023-04-24T11:16:34;11.00;99.90
19906;DHT22;10115;50.906;4.438;2023-04-24T11:19:22;11.10;99.90
19906;DHT22;10115;50.906;4.438;2023-04-24T11:21:55;11.10;99.90
19906;DHT22;10115;50.906;4.438;2023-04-24T11:30:09;11.30;99.90
19906;DHT22;10115;50.906;4.438;2023-04-24T11:35:14;11.50;99.90
19906;DHT22;10115;50.906;4.438;2023-04-24T11:37:51;11.30;99.90
19906;DHT22;10115;50.906;4.438;2023-04-24T11:40:19;11.30;99.90
19906;DHT22;10115;50.906;4.438;2023-04-24T11:42:47;11.50;99.90
19906;DHT22;10115;50.906;4.438;2023-04-24T11:45:16;11.60;99.90
19906;DHT22;10115;50.906;4.438;2023-04-24T11:47:43;11.50;99.90
19906;DHT22;10115;50.906;4.438;2023-04-24T11:50:12;11.40;99.90
19906;DHT22;10115;50.906;4.438;2023-04-24T11:52:42;11.50;99.90
19906;DHT22;10115;50.906;4.438;2023-04-24T11:55:23;11.30;99.90
19906;DHT22;10115;50.906;4.438;2023-04-24T11:57:54;11.40;99.90
19906;DHT22;10115;50.906;4.438;2023-04-24T12:00:24;11.80;99.90
19906;DHT22;10115;50.906;4.438;2023-04-24T12:02:51;11.90;99.90
19906;DHT22;10115;50.906;4.438;2023-04-24T12:05:26;12.00;99.90
19906;DHT22;10115;50.906;4.438;2023-04-24T12:07:53;12.20;99.90
19906;DHT22;10115;50.906;4.438;2023-04-24T12:10:23;12.30;99.90
19906;DHT22;10115;50.906;4.438;2023-04-24T12:12:50;12.20;99.90
19906;DHT22;10115;50.906;4.438;2023-04-24T12:15:18;12.30;99.90
19906;DHT22;10115;50.906;4.438;2023-04-24T12:17:44;12.20;99.90
19906;DHT22;10115;50.906;4.438;2023-04-24T12:20:10;12.10;99.90
19906;DHT22;10115;50.906;4.438;2023-04-24T12:25:12;12.70;99.90
19906;DHT22;10115;50.906;4.438;2023-04-24T12:27:38;12.30;99.90
19906;DHT22;10115;50.906;4.438;2023-04-24T12:30:05;12.00;99.90
19906;DHT22;10115;50.906;4.438;2023-04-24T12:32:32;11.80;99.90
19906;DHT22;10115;50.906;4.438;2023-04-24T12:34:58;12.10;99.90
19906;DHT22;10115;50.906;4.438;2023-04-24T12:37:25;12.30;99.90
19906;DHT22;10115;50.906;4.438;2023-04-24T12:40:08;12.40;99.90
19906;DHT22;10115;50.906;4.438;2023-04-24T12:42:35;12.40;99.90
19906;DHT22;10115;50.906;4.438;2023-04-24T12:45:05;12.70;99.90
19906;DHT22;10115;50.906;4.438;2023-04-24T12:47:32;12.70;99.90
19906;DHT22;10115;50.906;4.438;2023-04-24T12:49:59;12.80;99.90
19906;DHT22;10115;50.906;4.438;2023-04-24T12:52:26;12.80;99.90
19906;DHT22;10115;50.906;4.438;2023-04-24T12:54:53;13.20;99.90
19906;DHT22;10115;50.906;4.438;2023-04-24T12:57:21;13.20;99.90
19906;DHT22;10115;50.906;4.438;2023-04-24T12:59:46;13.30;99.90
19906;DHT22;10115;50.906;4.438;2023-04-24T13:02:12;13.30;99.90
19906;DHT22;10115;50.906;4.438;2023-04-24T13:04:38;13.70;99.90
19906;DHT22;10115;50.906;4.438;2023-04-24T13:07:05;13.90;99.90
19906;DHT22;10115;50.906;4.438;2023-04-24T13:09:31;14.10;99.90
19906;DHT22;10115;50.906;4.438;2023-04-24T13:11:56;14.00;99.90
19906;DHT22;10115;50.906;4.438;2023-04-24T13:14:23;13.60;99.90
19906;DHT22;10115;50.906;4.438;2023-04-24T13:16:49;13.00;99.90
19906;DHT22;10115;50.906;4.438;2023-04-24T13:19:15;12.50;99.90
19906;DHT22;10115;50.906;4.438;2023-04-24T13:21:40;12.30;99.90
19906;DHT22;10115;50.906;4.438;2023-04-24T13:24:06;12.30;99.90
19906;DHT22;10115;50.906;4.438;2023-04-24T13:26:33;12.20;99.90
19906;DHT22;10115;50.906;4.438;2023-04-24T13:28:59;12.20;99.90
19906;DHT22;10115;50.906;4.438;2023-04-24T13:31:25;12.60;99.90
19906;DHT22;10115;50.906;4.438;2023-04-24T13:33:50;13.60;99.90
19906;DHT22;10115;50.906;4.438;2023-04-24T13:36:17;14.70;99.90
19906;DHT22;10115;50.906;4.438;2023-04-24T13:38:46;15.00;99.90
19906;DHT22;10115;50.906;4.438;2023-04-24T13:41:12;13.70;99.90
19906;DHT22;10115;50.906;4.438;2023-04-24T13:43:37;13.00;99.90
19906;DHT22;10115;50.906;4.438;2023-04-24T13:46:03;12.80;99.90
19906;DHT22;10115;50.906;4.438;2023-04-24T13:48:29;12.90;99.90
19906;DHT22;10115;50.906;4.438;2023-04-24T13:50:57;12.80;99.90
19906;DHT22;10115;50.906;4.438;2023-04-24T13:53:23;12.60;99.90
19906;DHT22;10115;50.906;4.438;2023-04-24T13:55:48;12.60;99.90
19906;DHT22;10115;50.906;4.438;2023-04-24T13:58:15;12.60;99.90
19906;DHT22;10115;50.906;4.438;2023-04-24T14:00:40;12.70;99.90
19906;DHT22;10115;50.906;4.438;2023-04-24T14:03:06;13.00;99.90
19906;DHT22;10115;50.906;4.438;2023-04-24T14:05:32;13.50;99.90
19906;DHT22;10115;50.906;4.438;2023-04-24T14:07:58;13.10;99.90
19906;DHT22;10115;50.906;4.438;2023-04-24T14:10:24;12.50;99.90
19906;DHT22;10115;50.906;4.438;2023-04-24T14:12:50;12.30;99.90
19906;DHT22;10115;50.906;4.438;2023-04-24T14:15:16;12.30;99.90
19906;DHT22;10115;50.906;4.438;2023-04-24T14:17:42;12.50;99.90
19906;DHT22;10115;50.906;4.438;2023-04-24T14:20:08;12.90;99.90
19906;DHT22;10115;50.906;4.438;2023-04-24T14:22:34;12.80;99.90
19906;DHT22;10115;50.906;4.438;2023-04-24T14:25:00;13.10;99.90
19906;DHT22;10115;50.906;4.438;2023-04-24T14:27:26;14.50;99.90
19906;DHT22;10115;50.906;4.438;2023-04-24T14:29:52;14.40;99.90
19906;DHT22;10115;50.906;4.438;2023-04-24T14:32:18;13.70;99.90
19906;DHT22;10115;50.906;4.438;2023-04-24T14:34:43;13.30;99.90
19906;DHT22;10115;50.906;4.438;2023-04-24T14:37:09;13.00;99.90
19906;DHT22;10115;50.906;4.438;2023-04-24T14:39:35;12.90;99.90
19906;DHT22;10115;50.906;4.438;2023-04-24T14:42:00;13.20;99.90
19906;DHT22;10115;50.906;4.438;2023-04-24T14:44:26;13.10;99.90
19906;DHT22;10115;50.906;4.438;2023-04-24T14:46:52;12.70;99.90
19906;DHT22;10115;50.906;4.438;2023-04-24T14:49:18;12.50;99.90
19906;DHT22;10115;50.906;4.438;2023-04-24T14:51:44;12.50;99.90
19906;DHT22;10115;50.906;4.438;2023-04-24T14:54:10;12.30;99.90
19906;DHT22;10115;50.906;4.438;2023-04-24T14:56:36;12.40;99.90
19906;DHT22;10115;50.906;4.438;2023-04-24T14:59:02;12.30;99.90
19906;DHT22;10115;50.906;4.438;2023-04-24T15:01:28;12.20;99.90
19906;DHT22;10115;50.906;4.438;2023-04-24T15:03:53;12.40;99.90
19906;DHT22;10115;50.906;4.438;2023-04-24T15:06:19;12.30;99.90
19906;DHT22;10115;50.906;4.438;2023-04-24T15:08:45;12.30;99.90
19906;DHT22;10115;50.906;4.438;2023-04-24T15:11:11;12.20;99.90
19906;DHT22;10115;50.906;4.438;2023-04-24T15:13:37;12.30;99.90
19906;DHT22;10115;50.906;4.438;2023-04-24T15:16:03;12.60;99.90
19906;DHT22;10115;50.906;4.438;2023-04-24T15:18:29;12.70;99.90
19906;DHT22;10115;50.906;4.438;2023-04-24T15:20:55;12.60;99.90
19906;DHT22;10115;50.906;4.438;2023-04-24T15:23:21;12.50;99.90
19906;DHT22;10115;50.906;4.438;2023-04-24T15:25:47;12.30;99.90
19906;DHT22;10115;50.906;4.438;2023-04-24T15:28:13;12.00;99.90
19906;DHT22;10115;50.906;4.438;2023-04-24T15:30:39;12.00;99.90
19906;DHT22;10115;50.906;4.438;2023-04-24T15:33:07;11.80;99.90
19906;DHT22;10115;50.906;4.438;2023-04-24T15:35:33;11.80;99.90
19906;DHT22;10115;50.906;4.438;2023-04-24T15:37:59;11.90;99.90
19906;DHT22;10115;50.906;4.438;2023-04-24T15:40:26;12.10;99.90
19906;DHT22;10115;50.906;4.438;2023-04-24T15:42:52;12.30;99.90
19906;DHT22;10115;50.906;4.438;2023-04-24T15:45:18;12.10;99.90
19906;DHT22;10115;50.906;4.438;2023-04-24T15:47:44;12.20;99.90
19906;DHT22;10115;50.906;4.438;2023-04-24T15:50:11;12.40;99.90
19906;DHT22;10115;50.906;4.438;2023-04-24T15:52:38;12.20;99.90